createdAt,value
2019-01-20T00:02:18.906Z,21.36
2019-01-20T00:05:23.568Z,21.36
2019-01-20T00:08:27.240Z,21.33
2019-01-20T00:11:30.992Z,21.33
2019-01-20T00:14:34.654Z,21.33
2019-01-20T00:17:38.165Z,21.30
2019-01-20T00:20:41.736Z,21.30
2019-01-20T00:23:45.343Z,21.31
2019-01-20T00:26:48.885Z,21.29
2019-01-20T00:29:53.587Z,21.27
2019-01-20T00:32:57.129Z,21.26
2019-01-20T00:36:02.820Z,21.23
2019-01-20T00:39:08.637Z,21.25
2019-01-20T00:42:12.303Z,21.24
2019-01-20T00:45:17.000Z,21.23
2019-01-20T00:48:20.590Z,21.23
2019-01-20T00:51:24.568Z,21.22
2019-01-20T00:54:28.122Z,21.22
2019-01-20T00:57:31.747Z,21.20
2019-01-20T01:00:36.574Z,21.19
2019-01-20T01:03:40.254Z,21.18
2019-01-20T01:06:43.945Z,21.17
2019-01-20T01:09:47.668Z,21.15
2019-01-20T01:12:52.415Z,21.14
2019-01-20T01:15:56.108Z,21.15
2019-01-20T01:18:59.912Z,21.14
2019-01-20T01:22:03.510Z,21.13
2019-01-20T01:25:08.954Z,21.12
2019-01-20T01:28:12.553Z,21.12
2019-01-20T01:31:16.288Z,21.11
2019-01-20T01:34:19.905Z,21.11
2019-01-20T01:37:23.536Z,21.10
2019-01-20T01:40:27.062Z,21.10
2019-01-20T01:43:30.689Z,21.11
2019-01-20T01:46:34.301Z,21.08
2019-01-20T01:49:38.956Z,21.07
2019-01-20T01:52:42.537Z,21.07
2019-01-20T01:55:48.203Z,21.06
2019-01-20T01:58:51.793Z,21.06
2019-01-20T02:01:55.650Z,21.05
2019-01-20T02:05:00.328Z,21.03
2019-01-20T02:08:03.915Z,21.02
2019-01-20T02:11:11.685Z,21.03
2019-01-20T02:14:15.243Z,21.02
2019-01-20T02:17:18.913Z,21.01
2019-01-20T02:20:24.097Z,21.01
2019-01-20T02:23:29.684Z,21.00
2019-01-20T02:26:33.178Z,21.00
2019-01-20T02:29:36.831Z,21.00
2019-01-20T02:32:40.396Z,20.96
2019-01-20T02:35:44.138Z,20.95
2019-01-20T02:38:47.738Z,20.98
2019-01-20T02:41:55.200Z,20.96
2019-01-20T02:44:56.637Z,20.97
2019-01-20T02:48:00.165Z,20.95
2019-01-20T02:51:03.831Z,20.94
2019-01-20T02:54:07.427Z,20.93
2019-01-20T02:57:10.940Z,20.94
2019-01-20T03:00:22.217Z,20.94
2019-01-20T03:03:25.834Z,20.92
2019-01-20T03:06:29.327Z,20.92
2019-01-20T03:09:32.936Z,20.93
2019-01-20T03:12:36.502Z,20.89
2019-01-20T03:15:41.138Z,20.90
2019-01-20T03:18:45.575Z,20.89
2019-01-20T03:21:49.129Z,20.88
2019-01-20T03:24:52.818Z,20.89
2019-01-20T03:27:56.512Z,20.87
2019-01-20T03:31:00.236Z,20.89
2019-01-20T03:34:03.952Z,20.89
2019-01-20T03:37:07.588Z,20.88
2019-01-20T03:40:12.803Z,20.88
2019-01-20T03:43:16.280Z,20.89
2019-01-20T03:46:19.947Z,20.87
2019-01-20T03:49:23.511Z,20.86
2019-01-20T03:52:26.994Z,20.86
2019-01-20T03:55:30.652Z,20.85
2019-01-20T03:58:35.223Z,20.85
2019-01-20T04:01:38.872Z,20.83
2019-01-20T04:04:42.472Z,20.84
2019-01-20T04:07:46.171Z,20.83
2019-01-20T04:10:49.790Z,20.83
2019-01-20T04:13:53.437Z,20.83
2019-01-20T04:16:56.970Z,20.81
2019-01-20T04:20:00.548Z,20.81
2019-01-20T04:23:04.671Z,20.80
2019-01-20T04:26:08.324Z,20.80
2019-01-20T04:29:11.922Z,20.79
2019-01-20T04:32:15.587Z,20.78
2019-01-20T04:35:19.215Z,20.81
2019-01-20T04:38:22.840Z,20.80
2019-01-20T04:41:26.594Z,20.79
2019-01-20T04:44:34.290Z,20.78
2019-01-20T04:47:38.869Z,20.78
2019-01-20T04:50:42.554Z,20.77
2019-01-20T04:53:46.374Z,20.77
2019-01-20T04:56:49.839Z,20.77
2019-01-20T04:59:53.447Z,20.76
2019-01-20T05:02:56.923Z,20.76
2019-01-20T05:06:00.785Z,20.75
2019-01-20T05:09:06.896Z,20.76
2019-01-20T05:12:10.469Z,20.74
2019-01-20T05:15:19.158Z,20.74
2019-01-20T05:18:22.772Z,20.73
2019-01-20T05:21:26.388Z,20.73
2019-01-20T05:24:29.924Z,20.71
2019-01-20T05:27:33.467Z,20.72
2019-01-20T05:30:36.956Z,20.73
2019-01-20T05:33:40.519Z,20.72
2019-01-20T05:36:44.019Z,20.73
2019-01-20T05:39:48.555Z,20.72
2019-01-20T05:42:52.062Z,20.71
2019-01-20T05:45:56.583Z,20.70
2019-01-20T05:49:01.151Z,20.70
2019-01-20T05:52:04.723Z,20.69
2019-01-20T05:55:08.798Z,20.69
2019-01-20T05:58:12.368Z,20.69
2019-01-20T06:01:16.925Z,20.68
2019-01-20T06:04:20.434Z,20.67
2019-01-20T06:07:23.948Z,20.69
2019-01-20T06:10:28.485Z,20.68
2019-01-20T06:13:32.004Z,20.67
2019-01-20T06:16:35.695Z,20.67
2019-01-20T06:19:39.144Z,20.67
2019-01-20T06:22:42.674Z,20.65
2019-01-20T06:25:47.253Z,20.64
2019-01-20T06:28:50.853Z,20.65
2019-01-20T06:31:55.430Z,20.63
2019-01-20T06:34:58.939Z,20.65
2019-01-20T06:38:02.430Z,20.64
2019-01-20T06:41:05.944Z,20.64
2019-01-20T06:44:09.405Z,20.64
2019-01-20T06:47:13.974Z,20.63
2019-01-20T06:50:18.795Z,20.62
2019-01-20T06:53:22.286Z,20.61
2019-01-20T06:56:25.783Z,20.61
2019-01-20T06:59:29.297Z,20.62
2019-01-20T07:02:32.938Z,20.62
2019-01-20T07:05:36.510Z,20.60
2019-01-20T07:08:40.022Z,20.61
2019-01-20T07:11:43.632Z,20.60
2019-01-20T07:14:47.127Z,20.60
2019-01-20T07:17:50.588Z,20.60
2019-01-20T07:20:54.120Z,20.59
2019-01-20T07:23:58.648Z,20.57
2019-01-20T07:27:02.153Z,20.58
2019-01-20T07:30:07.985Z,20.58
2019-01-20T07:33:11.511Z,20.58
2019-01-20T07:36:15.030Z,20.58
2019-01-20T07:39:18.643Z,20.56
2019-01-20T07:42:22.273Z,20.56
2019-01-20T07:45:26.868Z,20.56
2019-01-20T07:48:35.495Z,20.56
2019-01-20T07:51:40.003Z,20.56
2019-01-20T07:54:43.722Z,20.55
2019-01-20T07:57:47.248Z,20.55
2019-01-20T08:00:50.867Z,20.55
2019-01-20T08:03:54.591Z,20.55
2019-01-20T08:06:58.087Z,20.54
2019-01-20T08:10:02.898Z,20.55
2019-01-20T08:13:06.576Z,20.56
2019-01-20T08:16:10.195Z,20.55
2019-01-20T08:19:13.688Z,20.57
2019-01-20T08:22:17.369Z,20.61
2019-01-20T08:25:21.037Z,20.62
2019-01-20T08:28:26.715Z,20.63
2019-01-20T08:31:30.481Z,20.63
2019-01-20T08:34:34.190Z,20.66
2019-01-20T08:37:37.913Z,20.67
2019-01-20T08:40:41.466Z,20.69
2019-01-20T08:43:46.210Z,20.68
2019-01-20T08:47:02.038Z,20.70
2019-01-20T08:50:09.984Z,20.71
2019-01-20T08:53:13.605Z,20.71
2019-01-20T08:56:17.373Z,20.71
2019-01-20T08:59:20.886Z,20.73
2019-01-20T09:02:25.077Z,20.74
2019-01-20T09:05:29.601Z,20.73
2019-01-20T09:08:33.079Z,20.74
2019-01-20T09:11:36.695Z,20.76
2019-01-20T09:14:40.337Z,20.78
2019-01-20T09:17:44.155Z,20.77
2019-01-20T09:20:47.741Z,20.80
2019-01-20T09:23:53.594Z,20.79
2019-01-20T09:26:58.825Z,20.82
2019-01-20T09:30:04.479Z,20.83
2019-01-20T09:33:08.198Z,20.85
2019-01-20T09:36:11.881Z,20.85
2019-01-20T09:39:15.538Z,20.87
2019-01-20T09:42:19.268Z,20.88
2019-01-20T09:45:26.855Z,20.89
2019-01-20T09:48:31.196Z,20.88
2019-01-20T09:51:34.919Z,20.93
2019-01-20T09:54:38.563Z,20.93
2019-01-20T09:57:43.273Z,20.92
2019-01-20T10:00:46.762Z,20.93
2019-01-20T10:03:50.326Z,20.93
2019-01-20T10:06:53.926Z,20.93
2019-01-20T10:09:57.487Z,20.96
2019-01-20T10:13:01.979Z,20.95
2019-01-20T10:16:05.592Z,20.98
2019-01-20T10:19:09.236Z,20.97
2019-01-20T10:22:12.928Z,20.99
2019-01-20T10:25:16.620Z,20.99
2019-01-20T10:28:22.981Z,21.01
2019-01-20T10:31:26.524Z,21.03
2019-01-20T10:34:31.811Z,21.04
2019-01-20T10:37:36.189Z,21.05
2019-01-20T10:40:39.690Z,21.08
2019-01-20T10:43:43.247Z,21.11
2019-01-20T10:46:46.873Z,21.13
2019-01-20T10:49:50.633Z,21.13
2019-01-20T10:52:54.204Z,21.15
2019-01-20T10:55:57.839Z,21.16
2019-01-20T10:59:01.387Z,21.18
2019-01-20T11:02:05.180Z,21.19
2019-01-20T11:05:08.721Z,21.22
2019-01-20T11:08:12.121Z,21.23
2019-01-20T11:11:15.703Z,21.24
2019-01-20T11:14:19.178Z,21.24
2019-01-20T11:17:22.652Z,21.27
2019-01-20T11:20:27.199Z,21.26
2019-01-20T11:23:30.805Z,21.26
2019-01-20T11:26:34.278Z,21.27
2019-01-20T11:29:37.846Z,21.29
2019-01-20T11:32:42.407Z,21.26
2019-01-20T11:35:46.318Z,21.31
2019-01-20T11:38:49.764Z,21.33
2019-01-20T11:41:53.290Z,21.36
2019-01-20T11:44:56.868Z,21.37
2019-01-20T11:48:00.389Z,21.36
2019-01-20T11:51:03.937Z,21.40
2019-01-20T11:54:07.455Z,21.39
2019-01-20T11:57:10.991Z,21.40
2019-01-20T12:00:17.727Z,21.41
2019-01-20T12:03:21.183Z,21.42
2019-01-20T12:06:24.867Z,21.42
2019-01-20T12:09:28.408Z,21.40
2019-01-20T12:12:32.248Z,21.41
2019-01-20T12:15:35.909Z,21.43
2019-01-20T12:18:39.445Z,21.43
2019-01-20T12:21:43.053Z,21.44
2019-01-20T12:24:46.524Z,21.46
2019-01-20T12:27:49.988Z,21.47
2019-01-20T12:30:53.513Z,21.48
2019-01-20T12:33:57.186Z,21.52
2019-01-20T12:37:00.637Z,21.54
2019-01-20T12:40:05.244Z,21.54
2019-01-20T12:43:08.815Z,21.58
2019-01-20T12:46:12.318Z,21.58
2019-01-20T12:49:16.030Z,21.61
2019-01-20T12:52:19.534Z,21.65
2019-01-20T12:55:23.068Z,21.68
2019-01-20T12:58:26.668Z,21.69
2019-01-20T13:01:30.173Z,21.72
2019-01-20T13:04:33.784Z,21.75
2019-01-20T13:07:37.364Z,21.79
2019-01-20T13:10:40.963Z,21.80
2019-01-20T13:13:44.472Z,21.81
2019-01-20T13:16:48.019Z,21.82
2019-01-20T13:19:51.524Z,21.82
2019-01-20T13:22:55.085Z,21.87
2019-01-20T13:25:58.672Z,21.88
2019-01-20T13:29:02.264Z,21.92
2019-01-20T13:32:05.838Z,21.92
2019-01-20T13:35:09.616Z,21.98
2019-01-20T13:38:15.286Z,21.99
2019-01-20T13:41:22.608Z,21.99
2019-01-20T13:44:26.116Z,22.02
2019-01-20T13:47:29.804Z,22.04
2019-01-20T13:50:33.263Z,22.05
2019-01-20T13:53:38.339Z,22.08
2019-01-20T13:56:42.101Z,22.08
2019-01-20T13:59:45.820Z,22.04
2019-01-20T14:02:49.422Z,22.04
2019-01-20T14:05:53.149Z,22.04
2019-01-20T14:08:56.741Z,22.05
2019-01-20T14:12:00.339Z,22.05
2019-01-20T14:15:04.162Z,22.03
2019-01-20T14:18:08.775Z,22.02
2019-01-20T14:21:12.318Z,22.01
2019-01-20T14:24:15.837Z,21.98
2019-01-20T14:27:20.466Z,21.97
2019-01-20T14:30:26.186Z,21.94
2019-01-20T14:33:29.697Z,21.92
2019-01-20T14:36:33.336Z,21.89
2019-01-20T14:39:36.876Z,21.85
2019-01-20T14:42:40.455Z,21.85
2019-01-20T14:45:44.062Z,21.83
2019-01-20T14:48:48.720Z,21.81
2019-01-20T14:51:52.321Z,21.81
2019-01-20T14:54:55.896Z,21.79
2019-01-20T14:57:59.544Z,21.79
2019-01-20T15:01:03.063Z,21.79
2019-01-20T15:04:06.688Z,21.79
2019-01-20T15:07:10.266Z,21.77
2019-01-20T15:10:13.814Z,21.78
2019-01-20T15:13:17.391Z,21.78
2019-01-20T15:16:20.990Z,21.79
2019-01-20T15:19:24.601Z,21.77
2019-01-20T15:22:28.205Z,21.78
2019-01-20T15:25:31.921Z,21.78
2019-01-20T15:28:35.628Z,21.76
2019-01-20T15:31:39.382Z,21.75
2019-01-20T15:34:42.870Z,21.76
2019-01-20T15:37:46.330Z,21.76
2019-01-20T15:40:49.861Z,21.74
2019-01-20T15:43:53.391Z,21.75
2019-01-20T15:46:56.848Z,21.74
2019-01-20T15:50:00.392Z,21.74
2019-01-20T15:53:04.062Z,21.73
2019-01-20T15:56:07.597Z,21.73
2019-01-20T15:59:11.173Z,21.73
2019-01-20T16:02:14.746Z,21.71
2019-01-20T16:05:18.292Z,21.73
2019-01-20T16:08:21.915Z,21.70
2019-01-20T16:11:25.521Z,21.72
2019-01-20T16:14:29.110Z,21.72
2019-01-20T16:17:32.636Z,21.72
2019-01-20T16:20:36.388Z,21.70
2019-01-20T16:23:39.993Z,21.71
2019-01-20T16:26:43.920Z,21.70
2019-01-20T16:29:47.465Z,21.69
2019-01-20T16:32:51.082Z,21.70
2019-01-20T16:35:54.689Z,21.70
2019-01-20T16:38:59.399Z,21.71
2019-01-20T16:42:02.943Z,21.70
2019-01-20T16:45:07.670Z,21.69
2019-01-20T16:48:12.673Z,21.71
2019-01-20T16:51:16.305Z,21.70
2019-01-20T16:54:19.870Z,21.68
2019-01-20T16:57:26.433Z,21.67
2019-01-20T17:00:31.664Z,21.70
2019-01-20T17:03:35.177Z,21.69
2019-01-20T17:06:39.540Z,21.68
2019-01-20T17:09:43.123Z,21.68
2019-01-20T17:12:46.710Z,21.69
2019-01-20T17:15:50.364Z,21.66
2019-01-20T17:18:54.040Z,21.68
2019-01-20T17:21:57.672Z,21.67
2019-01-20T17:25:01.233Z,21.67
2019-01-20T17:28:05.319Z,21.66
2019-01-20T17:31:11.238Z,21.66
2019-01-20T17:34:15.046Z,21.67
2019-01-20T17:37:18.624Z,21.67
2019-01-20T17:40:24.048Z,21.66
2019-01-20T17:43:27.616Z,21.64
2019-01-20T17:46:31.137Z,21.65
2019-01-20T17:49:34.702Z,21.63
2019-01-20T17:52:38.283Z,21.63
2019-01-20T17:55:41.940Z,21.65
2019-01-20T17:58:45.425Z,21.62
2019-01-20T18:01:49.060Z,21.63
2019-01-20T18:04:52.576Z,21.63
2019-01-20T18:07:56.330Z,21.62
2019-01-20T18:11:00.013Z,21.61
2019-01-20T18:14:03.652Z,21.62
2019-01-20T18:17:07.257Z,21.61
2019-01-20T18:20:14.268Z,21.62
2019-01-20T18:23:18.735Z,21.62
2019-01-20T18:26:22.373Z,21.63
2019-01-20T18:29:25.968Z,21.62
2019-01-20T18:32:30.841Z,21.61
2019-01-20T18:35:34.444Z,21.60
2019-01-20T18:38:41.380Z,21.60
2019-01-20T18:41:44.979Z,21.61
2019-01-20T18:44:48.426Z,21.61
2019-01-20T18:47:51.968Z,21.61
2019-01-20T18:50:55.581Z,21.62
2019-01-20T18:54:00.538Z,21.60
2019-01-20T18:57:04.100Z,21.61
2019-01-20T19:00:11.975Z,21.59
2019-01-20T19:03:15.479Z,21.60
2019-01-20T19:06:18.974Z,21.60
2019-01-20T19:09:22.498Z,21.60
2019-01-20T19:12:26.060Z,21.60
2019-01-20T19:15:29.716Z,21.60
2019-01-20T19:18:34.154Z,21.59
2019-01-20T19:21:37.668Z,21.60
2019-01-20T19:24:41.196Z,21.60
2019-01-20T19:27:44.683Z,21.60
2019-01-20T19:30:48.170Z,21.61
2019-01-20T19:33:51.793Z,21.60
2019-01-20T19:36:55.333Z,21.58
2019-01-20T19:39:58.953Z,21.59
2019-01-20T19:43:02.744Z,21.58
2019-01-20T19:46:06.345Z,21.60
2019-01-20T19:49:09.989Z,21.59
2019-01-20T19:52:13.602Z,21.59
2019-01-20T19:55:22.232Z,21.60
2019-01-20T19:58:25.877Z,21.59
2019-01-20T20:01:30.910Z,21.58
2019-01-20T20:04:34.585Z,21.60
2019-01-20T20:07:38.092Z,21.58
2019-01-20T20:10:41.630Z,21.59
2019-01-20T20:13:45.128Z,21.59
2019-01-20T20:16:48.705Z,21.58
2019-01-20T20:19:52.287Z,21.58
2019-01-20T20:22:55.840Z,21.56
2019-01-20T20:25:59.352Z,21.56
2019-01-20T20:29:03.007Z,21.57
2019-01-20T20:32:06.633Z,21.58
2019-01-20T20:35:10.173Z,21.57
2019-01-20T20:38:13.877Z,21.57
2019-01-20T20:41:17.521Z,21.56
2019-01-20T20:44:20.998Z,21.58
2019-01-20T20:47:24.694Z,21.57
2019-01-20T20:50:28.240Z,21.56
2019-01-20T20:53:31.785Z,21.57
2019-01-20T20:56:35.536Z,21.56
2019-01-20T20:59:39.200Z,21.55
2019-01-20T21:02:42.895Z,21.53
2019-01-20T21:05:46.488Z,21.50
2019-01-20T21:08:49.989Z,21.46
2019-01-20T21:11:53.597Z,21.41
2019-01-20T21:14:57.278Z,21.42
2019-01-20T21:18:01.824Z,21.39
2019-01-20T21:21:05.324Z,21.37
2019-01-20T21:24:09.019Z,21.37
2019-01-20T21:27:12.519Z,21.35
2019-01-20T21:30:18.234Z,21.30
2019-01-20T21:33:21.821Z,21.31
2019-01-20T21:36:25.387Z,21.27
2019-01-20T21:39:28.954Z,21.26
2019-01-20T21:42:32.476Z,21.26
2019-01-20T21:45:36.988Z,21.21
2019-01-20T21:48:40.520Z,21.22
2019-01-20T21:51:44.212Z,21.18
2019-01-20T21:54:47.696Z,21.18
2019-01-20T21:57:51.182Z,21.11
2019-01-20T22:00:54.724Z,21.14
2019-01-20T22:03:58.409Z,21.12
2019-01-20T22:07:01.903Z,21.10
2019-01-20T22:10:07.337Z,21.09
2019-01-20T22:13:10.903Z,21.07
2019-01-20T22:16:14.445Z,21.03
2019-01-20T22:19:17.950Z,21.02
2019-01-20T22:22:21.481Z,21.02
2019-01-20T22:25:24.964Z,21.00
2019-01-20T22:28:29.476Z,20.99
2019-01-20T22:31:34.000Z,20.98
2019-01-20T22:34:37.530Z,20.95
2019-01-20T22:37:41.238Z,20.95
2019-01-20T22:40:44.921Z,20.92
2019-01-20T22:43:48.493Z,20.93
2019-01-20T22:46:52.163Z,20.91
2019-01-20T22:49:55.648Z,20.91
2019-01-20T22:52:59.220Z,20.88
2019-01-20T22:56:02.788Z,20.89
2019-01-20T22:59:06.332Z,20.88
2019-01-20T23:02:09.789Z,20.88
2019-01-20T23:05:13.622Z,20.83
2019-01-20T23:08:17.215Z,20.84
2019-01-20T23:11:20.633Z,20.83
2019-01-20T23:14:24.122Z,20.82
2019-01-20T23:17:27.641Z,20.81
2019-01-20T23:20:31.129Z,20.78
2019-01-20T23:23:34.770Z,20.77
2019-01-20T23:26:38.250Z,20.76
2019-01-20T23:29:41.729Z,20.76
2019-01-20T23:32:45.187Z,20.77
2019-01-20T23:35:49.290Z,20.74
2019-01-20T23:38:52.851Z,20.74
2019-01-20T23:41:56.364Z,20.74
2019-01-20T23:44:59.852Z,20.69
2019-01-20T23:48:03.361Z,20.69
2019-01-20T23:51:06.843Z,20.69
2019-01-20T23:54:10.416Z,20.67
2019-01-20T23:57:14.107Z,20.66
